TimeCST,TemperatureF,Dew PointF,Humidity,Sea Level PressureIn,VisibilityMPH,Wind Direction,Wind SpeedMPH,Gust SpeedMPH,PrecipitationIn,Events,Conditions,WindDirDegrees,DateUTC
12:54 AM,15.1,10.0,80,30.19,10.0,SSW,5.8,-,N/A,,Overcast,210,2013-12-15 06:54:00
1:54 AM,16.0,10.9,81,30.17,10.0,SSE,5.8,-,N/A,,Overcast,160,2013-12-15 07:54:00
2:54 AM,16.0,10.9,81,30.15,10.0,SSE,4.6,-,N/A,,Mostly Cloudy,160,2013-12-15 08:54:00
3:54 AM,17.1,10.9,77,30.14,10.0,SE,8.1,-,N/A,,Overcast,130,2013-12-15 09:54:00
4:54 AM,17.1,9.0,71,30.13,10.0,ESE,5.8,-,N/A,,Overcast,120,2013-12-15 10:54:00
5:54 AM,17.1,9.0,71,30.13,10.0,ENE,5.8,-,N/A,,Overcast,70,2013-12-15 11:54:00
6:04 AM,17.1,9.0,71,30.08,10.0,East,4.6,-,N/A,,Overcast,90,2013-12-15 12:04:00
6:38 AM,17.1,9.0,71,30.07,10.0,East,6.9,-,N/A,,Overcast,90,2013-12-15 12:38:00
6:52 AM,17.6,8.6,68,30.09,10.0,NE,8.1,-,N/A,,Overcast,40,2013-12-15 12:52:00
6:54 AM,17.1,9.0,71,30.13,10.0,NE,8.1,-,N/A,,Overcast,50,2013-12-15 12:54:00
7:54 AM,16.0,9.0,74,30.12,10.0,ENE,3.5,-,N/A,,Overcast,70,2013-12-15 13:54:00
8:14 AM,16.0,9.0,74,30.07,10.0,ENE,3.5,-,N/A,,Overcast,70,2013-12-15 14:14:00
8:54 AM,18.0,10.0,71,30.13,10.0,East,5.8,-,N/A,,Overcast,100,2013-12-15 14:54:00
9:09 AM,18.0,10.0,71,30.08,10.0,ENE,4.6,-,N/A,,Overcast,70,2013-12-15 15:09:00
9:27 AM,18.0,10.0,71,30.08,10.0,ESE,3.5,-,N/A,,Overcast,110,2013-12-15 15:27:00
9:54 AM,19.0,10.0,68,30.13,10.0,East,4.6,-,N/A,,Mostly Cloudy,100,2013-12-15 15:54:00
10:54 AM,21.9,10.9,63,30.13,10.0,ENE,4.6,-,N/A,,Mostly Cloudy,70,2013-12-15 16:54:00
11:54 AM,23.0,12.9,65,30.11,10.0,East,5.8,-,N/A,,Overcast,100,2013-12-15 17:54:00
12:54 PM,25.0,14.0,63,30.06,10.0,East,5.8,-,N/A,,Overcast,90,2013-12-15 18:54:00
1:54 PM,26.1,14.0,60,30.04,10.0,ESE,6.9,-,N/A,,Overcast,120,2013-12-15 19:54:00
2:54 PM,27.0,15.1,61,30.03,10.0,SE,5.8,-,N/A,,Overcast,130,2013-12-15 20:54:00
3:54 PM,27.0,16.0,63,30.04,10.0,East,6.9,-,N/A,,Overcast,90,2013-12-15 21:54:00
4:54 PM,26.1,16.0,66,30.03,10.0,ESE,9.2,-,N/A,,Overcast,120,2013-12-15 22:54:00
5:54 PM,24.1,16.0,71,30.03,10.0,SE,9.2,-,N/A,,Mostly Cloudy,130,2013-12-15 23:54:00
6:54 PM,21.0,14.0,74,30.03,9.0,ESE,5.8,-,N/A,,Partly Cloudy,120,2013-12-16 00:54:00
7:54 PM,19.9,14.0,78,30.03,9.0,ENE,6.9,-,N/A,,Mostly Cloudy,70,2013-12-16 01:54:00
8:54 PM,21.0,15.1,78,30.03,9.0,Calm,Calm,-,N/A,,Mostly Cloudy,0,2013-12-16 02:54:00
9:54 PM,19.9,14.0,78,30.02,9.0,NE,4.6,-,N/A,,Clear,50,2013-12-16 03:54:00
10:54 PM,17.1,12.0,81,30.04,8.0,North,4.6,-,N/A,,Clear,350,2013-12-16 04:54:00
11:54 PM,12.0,9.0,88,30.04,7.0,North,3.5,-,N/A,,Clear,10,2013-12-16 05:54:00